sensor_id;sensor_type;location;lat;lon;timestamp;temperature;humidity
698;DHT22;331;48.414;9.938;2023-05-10T00:01:29;15.60;99.90
698;DHT22;331;48.414;9.938;2023-05-10T00:03:56;15.50;99.90
698;DHT22;331;48.414;9.938;2023-05-10T00:06:23;15.50;99.90
698;DHT22;331;48.414;9.938;2023-05-10T00:08:50;15.50;99.90
698;DHT22;331;48.414;9.938;2023-05-10T00:11:17;15.50;99.90
698;DHT22;331;48.414;9.938;2023-05-10T00:13:43;15.50;99.90
698;DHT22;331;48.414;9.938;2023-05-10T00:16:11;15.50;99.90
698;DHT22;331;48.414;9.938;2023-05-10T00:18:39;15.40;99.90
698;DHT22;331;48.414;9.938;2023-05-10T00:21:06;15.40;99.90
698;DHT22;331;48.414;9.938;2023-05-10T00:23:33;15.40;99.90
698;DHT22;331;48.414;9.938;2023-05-10T00:26:00;15.40;99.90
698;DHT22;331;48.414;9.938;2023-05-10T00:28:27;15.40;99.90
698;DHT22;331;48.414;9.938;2023-05-10T00:30:55;15.40;99.90
698;DHT22;331;48.414;9.938;2023-05-10T00:33:22;15.40;99.90
698;DHT22;331;48.414;9.938;2023-05-10T00:35:51;15.30;99.90
698;DHT22;331;48.414;9.938;2023-05-10T00:38:18;15.30;99.90
698;DHT22;331;48.414;9.938;2023-05-10T00:40:45;15.30;99.90
698;DHT22;331;48.414;9.938;2023-05-10T00:43:20;15.30;99.90
698;DHT22;331;48.414;9.938;2023-05-10T00:45:47;15.30;99.90
698;DHT22;331;48.414;9.938;2023-05-10T00:48:14;15.30;99.90
698;DHT22;331;48.414;9.938;2023-05-10T00:50:42;15.20;99.90
698;DHT22;331;48.414;9.938;2023-05-10T00:53:11;15.30;99.90
698;DHT22;331;48.414;9.938;2023-05-10T00:55:38;15.30;99.90
698;DHT22;331;48.414;9.938;2023-05-10T00:58:05;15.20;99.90
698;DHT22;331;48.414;9.938;2023-05-10T01:00:32;15.20;99.90
698;DHT22;331;48.414;9.938;2023-05-10T01:02:59;15.20;99.90
698;DHT22;331;48.414;9.938;2023-05-10T01:05:26;15.20;99.90
698;DHT22;331;48.414;9.938;2023-05-10T01:07:53;15.20;99.90
698;DHT22;331;48.414;9.938;2023-05-10T01:10:22;15.10;99.90
698;DHT22;331;48.414;9.938;2023-05-10T01:12:49;15.20;99.90
698;DHT22;331;48.414;9.938;2023-05-10T01:15:16;15.10;99.90
698;DHT22;331;48.414;9.938;2023-05-10T01:17:44;15.10;99.90
698;DHT22;331;48.414;9.938;2023-05-10T01:20:12;15.10;99.90
698;DHT22;331;48.414;9.938;2023-05-10T01:22:44;15.10;99.90
698;DHT22;331;48.414;9.938;2023-05-10T01:31:16;15.10;99.90
698;DHT22;331;48.414;9.938;2023-05-10T01:33:48;15.10;99.90
698;DHT22;331;48.414;9.938;2023-05-10T01:36:19;15.00;99.90
698;DHT22;331;48.414;9.938;2023-05-10T01:38:52;15.00;99.90
698;DHT22;331;48.414;9.938;2023-05-10T01:41:20;15.00;99.90
698;DHT22;331;48.414;9.938;2023-05-10T01:43:52;15.00;99.90
698;DHT22;331;48.414;9.938;2023-05-10T01:46:20;15.00;99.90
698;DHT22;331;48.414;9.938;2023-05-10T01:48:59;15.00;99.90
698;DHT22;331;48.414;9.938;2023-05-10T01:51:29;15.00;99.90
698;DHT22;331;48.414;9.938;2023-05-10T01:53:59;15.00;99.90
698;DHT22;331;48.414;9.938;2023-05-10T02:23:27;14.90;99.90
698;DHT22;331;48.414;9.938;2023-05-10T02:25:58;14.80;99.90
698;DHT22;331;48.414;9.938;2023-05-10T02:28:25;14.70;99.90
698;DHT22;331;48.414;9.938;2023-05-10T02:30:54;14.70;99.90
698;DHT22;331;48.414;9.938;2023-05-10T02:33:21;14.70;99.90
698;DHT22;331;48.414;9.938;2023-05-10T02:35:49;14.70;99.90
698;DHT22;331;48.414;9.938;2023-05-10T02:38:16;14.60;99.90
698;DHT22;331;48.414;9.938;2023-05-10T02:40:46;14.60;99.90
698;DHT22;331;48.414;9.938;2023-05-10T02:43:14;14.60;99.90
698;DHT22;331;48.414;9.938;2023-05-10T02:45:42;14.60;99.90
698;DHT22;331;48.414;9.938;2023-05-10T02:48:09;14.60;99.90
698;DHT22;331;48.414;9.938;2023-05-10T02:50:36;14.50;99.90
698;DHT22;331;48.414;9.938;2023-05-10T02:53:06;14.50;99.90
698;DHT22;331;48.414;9.938;2023-05-10T02:55:36;14.50;99.90
698;DHT22;331;48.414;9.938;2023-05-10T02:58:06;14.50;99.90
698;DHT22;331;48.414;9.938;2023-05-10T03:00:33;14.40;99.90
698;DHT22;331;48.414;9.938;2023-05-10T03:03:01;14.40;99.90
698;DHT22;331;48.414;9.938;2023-05-10T03:05:27;14.40;99.90
698;DHT22;331;48.414;9.938;2023-05-10T03:07:57;14.30;99.90
698;DHT22;331;48.414;9.938;2023-05-10T03:10:27;14.30;99.90
698;DHT22;331;48.414;9.938;2023-05-10T03:13:05;14.30;99.90
698;DHT22;331;48.414;9.938;2023-05-10T03:15:36;14.40;99.90
698;DHT22;331;48.414;9.938;2023-05-10T03:18:05;14.30;99.90
698;DHT22;331;48.414;9.938;2023-05-10T03:20:35;14.30;99.90
698;DHT22;331;48.414;9.938;2023-05-10T03:23:04;14.40;99.90
698;DHT22;331;48.414;9.938;2023-05-10T03:25:34;14.30;99.90
698;DHT22;331;48.414;9.938;2023-05-10T03:28:03;14.30;99.90
698;DHT22;331;48.414;9.938;2023-05-10T03:30:31;14.30;99.90
698;DHT22;331;48.414;9.938;2023-05-10T03:33:05;14.30;99.90
698;DHT22;331;48.414;9.938;2023-05-10T03:35:35;14.20;99.90
698;DHT22;331;48.414;9.938;2023-05-10T03:38:02;14.20;99.90
698;DHT22;331;48.414;9.938;2023-05-10T03:40:30;14.20;99.90
698;DHT22;331;48.414;9.938;2023-05-10T03:42:58;14.20;99.90
698;DHT22;331;48.414;9.938;2023-05-10T03:45:26;14.20;99.90
698;DHT22;331;48.414;9.938;2023-05-10T03:47:53;14.20;99.90
698;DHT22;331;48.414;9.938;2023-05-10T03:50:22;14.20;99.90
698;DHT22;331;48.414;9.938;2023-05-10T03:52:50;14.20;99.90
698;DHT22;331;48.414;9.938;2023-05-10T03:55:17;14.20;99.90
698;DHT22;331;48.414;9.938;2023-05-10T03:57:45;14.10;99.90
698;DHT22;331;48.414;9.938;2023-05-10T04:00:15;14.10;99.90
698;DHT22;331;48.414;9.938;2023-05-10T04:02:42;14.10;99.90
698;DHT22;331;48.414;9.938;2023-05-10T04:05:16;14.10;99.90
698;DHT22;331;48.414;9.938;2023-05-10T04:07:45;14.10;99.90
698;DHT22;331;48.414;9.938;2023-05-10T04:10:12;14.00;99.90
698;DHT22;331;48.414;9.938;2023-05-10T04:12:39;14.10;99.90
698;DHT22;331;48.414;9.938;2023-05-10T04:15:07;14.00;99.90
698;DHT22;331;48.414;9.938;2023-05-10T04:17:37;14.00;99.90
698;DHT22;331;48.414;9.938;2023-05-10T04:20:05;14.00;99.90
698;DHT22;331;48.414;9.938;2023-05-10T04:22:33;14.00;99.90
698;DHT22;331;48.414;9.938;2023-05-10T04:25:01;14.00;99.90
698;DHT22;331;48.414;9.938;2023-05-10T04:27:28;14.00;99.90
698;DHT22;331;48.414;9.938;2023-05-10T04:29:55;14.00;99.90
698;DHT22;331;48.414;9.938;2023-05-10T04:32:22;14.00;99.90
698;DHT22;331;48.414;9.938;2023-05-10T04:34:51;14.00;99.90
698;DHT22;331;48.414;9.938;2023-05-10T04:37:18;13.90;99.90
698;DHT22;331;48.414;9.938;2023-05-10T04:39:47;13.90;99.90
698;DHT22;331;48.414;9.938;2023-05-10T04:42:20;13.90;99.90
698;DHT22;331;48.414;9.938;2023-05-10T04:44:47;13.90;99.90
698;DHT22;331;48.414;9.938;2023-05-10T04:47:17;13.90;99.90
698;DHT22;331;48.414;9.938;2023-05-10T04:49:44;13.90;99.90
698;DHT22;331;48.414;9.938;2023-05-10T04:52:11;13.90;99.90
698;DHT22;331;48.414;9.938;2023-05-10T04:54:40;13.90;99.90
698;DHT22;331;48.414;9.938;2023-05-10T04:57:07;13.90;99.90
698;DHT22;331;48.414;9.938;2023-05-10T04:59:36;13.90;99.90
698;DHT22;331;48.414;9.938;2023-05-10T05:02:03;13.80;99.90
698;DHT22;331;48.414;9.938;2023-05-10T05:04:31;13.80;99.90
698;DHT22;331;48.414;9.938;2023-05-10T05:06:58;13.80;99.90
698;DHT22;331;48.414;9.938;2023-05-10T05:09:25;13.80;99.90
698;DHT22;331;48.414;9.938;2023-05-10T05:11:52;13.80;99.90
698;DHT22;331;48.414;9.938;2023-05-10T05:14:29;13.80;99.90
698;DHT22;331;48.414;9.938;2023-05-10T05:16:57;13.80;99.90
698;DHT22;331;48.414;9.938;2023-05-10T05:19:25;13.80;99.90
698;DHT22;331;48.414;9.938;2023-05-10T05:21:57;13.70;99.90
698;DHT22;331;48.414;9.938;2023-05-10T05:24:27;13.70;99.90
698;DHT22;331;48.414;9.938;2023-05-10T05:26:57;13.70;99.90
698;DHT22;331;48.414;9.938;2023-05-10T05:29:24;13.70;99.90
698;DHT22;331;48.414;9.938;2023-05-10T05:31:51;13.70;99.90
698;DHT22;331;48.414;9.938;2023-05-10T05:34:22;13.70;99.90
698;DHT22;331;48.414;9.938;2023-05-10T05:36:52;13.70;99.90
698;DHT22;331;48.414;9.938;2023-05-10T05:39:19;13.70;99.90
698;DHT22;331;48.414;9.938;2023-05-10T05:41:46;13.70;99.90
698;DHT22;331;48.414;9.938;2023-05-10T05:44:13;13.70;99.90
698;DHT22;331;48.414;9.938;2023-05-10T05:46:43;13.60;99.90
698;DHT22;331;48.414;9.938;2023-05-10T05:49:10;13.60;99.90
698;DHT22;331;48.414;9.938;2023-05-10T05:51:41;13.60;99.90
698;DHT22;331;48.414;9.938;2023-05-10T05:54:11;13.60;99.90
698;DHT22;331;48.414;9.938;2023-05-10T05:56:39;13.60;99.90
698;DHT22;331;48.414;9.938;2023-05-10T05:59:13;13.60;99.90
698;DHT22;331;48.414;9.938;2023-05-10T06:01:43;13.60;99.90
698;DHT22;331;48.414;9.938;2023-05-10T06:04:10;13.60;99.90
698;DHT22;331;48.414;9.938;2023-05-10T06:06:40;13.60;99.90
698;DHT22;331;48.414;9.938;2023-05-10T06:09:13;13.60;99.90
698;DHT22;331;48.414;9.938;2023-05-10T06:11:55;13.60;99.90
698;DHT22;331;48.414;9.938;2023-05-10T06:14:25;13.60;99.90
698;DHT22;331;48.414;9.938;2023-05-10T06:16:55;13.60;99.90
698;DHT22;331;48.414;9.938;2023-05-10T06:19:22;13.60;99.90
698;DHT22;331;48.414;9.938;2023-05-10T06:21:51;13.60;99.90
698;DHT22;331;48.414;9.938;2023-05-10T06:24:18;13.50;99.90
698;DHT22;331;48.414;9.938;2023-05-10T06:26:45;13.60;99.90
698;DHT22;331;48.414;9.938;2023-05-10T06:29:15;13.50;99.90
698;DHT22;331;48.414;9.938;2023-05-10T06:31:57;13.50;99.90
698;DHT22;331;48.414;9.938;2023-05-10T06:34:24;13.50;99.90
698;DHT22;331;48.414;9.938;2023-05-10T06:36:52;13.50;99.90
698;DHT22;331;48.414;9.938;2023-05-10T06:39:19;13.50;99.90
698;DHT22;331;48.414;9.938;2023-05-10T06:41:48;13.50;99.90
698;DHT22;331;48.414;9.938;2023-05-10T06:44:15;13.50;99.90
698;DHT22;331;48.414;9.938;2023-05-10T06:46:44;13.60;99.90
698;DHT22;331;48.414;9.938;2023-05-10T06:49:11;13.50;99.90
698;DHT22;331;48.414;9.938;2023-05-10T06:51:39;13.50;99.90
698;DHT22;331;48.414;9.938;2023-05-10T06:54:10;13.50;99.90
698;DHT22;331;48.414;9.938;2023-05-10T06:56:45;13.50;99.90
698;DHT22;331;48.414;9.938;2023-05-10T06:59:12;13.50;99.90
698;DHT22;331;48.414;9.938;2023-05-10T07:01:40;13.50;99.90
698;DHT22;331;48.414;9.938;2023-05-10T07:04:07;13.50;99.90
698;DHT22;331;48.414;9.938;2023-05-10T07:06:37;13.50;99.90
698;DHT22;331;48.414;9.938;2023-05-10T07:09:04;13.50;99.90
698;DHT22;331;48.414;9.938;2023-05-10T07:11:34;13.50;99.90
698;DHT22;331;48.414;9.938;2023-05-10T07:14:02;13.50;99.90
698;DHT22;331;48.414;9.938;2023-05-10T07:16:32;13.50;99.90
698;DHT22;331;48.414;9.938;2023-05-10T07:18:59;13.50;99.90
698;DHT22;331;48.414;9.938;2023-05-10T07:21:28;13.50;99.90
698;DHT22;331;48.414;9.938;2023-05-10T07:23:57;13.50;99.90
698;DHT22;331;48.414;9.938;2023-05-10T07:26:34;13.50;99.90
698;DHT22;331;48.414;9.938;2023-05-10T07:29:02;13.50;99.90
698;DHT22;331;48.414;9.938;2023-05-10T07:31:29;13.50;99.90
698;DHT22;331;48.414;9.938;2023-05-10T07:33:59;13.50;99.90
698;DHT22;331;48.414;9.938;2023-05-10T07:36:39;13.50;99.90
698;DHT22;331;48.414;9.938;2023-05-10T07:39:06;13.50;99.90
698;DHT22;331;48.414;9.938;2023-05-10T07:41:35;13.50;99.90
698;DHT22;331;48.414;9.938;2023-05-10T07:44:03;13.50;99.90
698;DHT22;331;48.414;9.938;2023-05-10T07:46:30;13.50;99.90
698;DHT22;331;48.414;9.938;2023-05-10T07:48:57;13.50;99.90
698;DHT22;331;48.414;9.938;2023-05-10T07:51:24;13.50;99.90
698;DHT22;331;48.414;9.938;2023-05-10T07:53:52;13.50;99.90
698;DHT22;331;48.414;9.938;2023-05-10T07:56:20;13.50;99.90
698;DHT22;331;48.414;9.938;2023-05-10T07:58:50;13.50;99.90
698;DHT22;331;48.414;9.938;2023-05-10T08:01:21;13.50;99.90
698;DHT22;331;48.414;9.938;2023-05-10T08:03:50;13.50;99.90
698;DHT22;331;48.414;9.938;2023-05-10T08:06:21;13.50;99.90
698;DHT22;331;48.414;9.938;2023-05-10T08:08:48;13.50;99.90
698;DHT22;331;48.414;9.938;2023-05-10T08:11:21;13.50;99.90
698;DHT22;331;48.414;9.938;2023-05-10T08:13:49;13.50;99.90
698;DHT22;331;48.414;9.938;2023-05-10T08:16:21;13.50;99.90
698;DHT22;331;48.414;9.938;2023-05-10T08:18:48;13.50;99.90
698;DHT22;331;48.414;9.938;2023-05-10T08:21:20;13.50;99.90
698;DHT22;331;48.414;9.938;2023-05-10T08:23:49;13.50;99.90
698;DHT22;331;48.414;9.938;2023-05-10T08:26:16;13.50;99.90
698;DHT22;331;48.414;9.938;2023-05-10T08:28:43;13.50;99.90
698;DHT22;331;48.414;9.938;2023-05-10T08:31:12;13.50;99.90
698;DHT22;331;48.414;9.938;2023-05-10T08:33:39;13.60;99.90
698;DHT22;331;48.414;9.938;2023-05-10T08:36:09;13.50;99.90
698;DHT22;331;48.414;9.938;2023-05-10T08:38:37;13.50;99.90
698;DHT22;331;48.414;9.938;2023-05-10T08:41:04;13.50;99.90
698;DHT22;331;48.414;9.938;2023-05-10T08:43:31;13.60;99.90
698;DHT22;331;48.414;9.938;2023-05-10T08:45:59;13.60;99.90
698;DHT22;331;48.414;9.938;2023-05-10T08:48:29;13.60;99.90
698;DHT22;331;48.414;9.938;2023-05-10T08:50:58;13.60;99.90
698;DHT22;331;48.414;9.938;2023-05-10T08:53:27;13.60;99.90
698;DHT22;331;48.414;9.938;2023-05-10T08:56:04;13.60;99.90
698;DHT22;331;48.414;9.938;2023-05-10T08:58:41;13.60;99.90
698;DHT22;331;48.414;9.938;2023-05-10T09:01:21;13.60;99.90
698;DHT22;331;48.414;9.938;2023-05-10T09:03:49;13.60;99.90
698;DHT22;331;48.414;9.938;2023-05-10T09:06:17;13.60;99.90
698;DHT22;331;48.414;9.938;2023-05-10T09:08:49;13.60;99.90
698;DHT22;331;48.414;9.938;2023-05-10T09:11:40;13.60;99.90
698;DHT22;331;48.414;9.938;2023-05-10T09:14:09;13.60;99.90
698;DHT22;331;48.414;9.938;2023-05-10T09:16:42;13.60;99.90
698;DHT22;331;48.414;9.938;2023-05-10T09:19:23;13.60;99.90
698;DHT22;331;48.414;9.938;2023-05-10T09:21:56;13.60;99.90
698;DHT22;331;48.414;9.938;2023-05-10T09:24:28;13.70;99.90
698;DHT22;331;48.414;9.938;2023-05-10T09:26:59;13.70;99.90
698;DHT22;331;48.414;9.938;2023-05-10T09:29:26;13.70;99.90
698;DHT22;331;48.414;9.938;2023-05-10T09:31:55;13.70;99.90
698;DHT22;331;48.414;9.938;2023-05-10T09:34:36;13.70;99.90
698;DHT22;331;48.414;9.938;2023-05-10T09:37:12;13.70;99.90
698;DHT22;331;48.414;9.938;2023-05-10T09:39:45;13.70;99.90
698;DHT22;331;48.414;9.938;2023-05-10T09:42:17;13.70;99.90
698;DHT22;331;48.414;9.938;2023-05-10T09:44:49;13.70;99.90
698;DHT22;331;48.414;9.938;2023-05-10T09:47:16;13.70;99.90
698;DHT22;331;48.414;9.938;2023-05-10T09:49:59;13.70;99.90
698;DHT22;331;48.414;9.938;2023-05-10T09:52:29;13.80;99.90
698;DHT22;331;48.414;9.938;2023-05-10T09:54:57;13.80;99.90
698;DHT22;331;48.414;9.938;2023-05-10T09:57:30;13.80;99.90
698;DHT22;331;48.414;9.938;2023-05-10T09:59:57;13.80;99.90
698;DHT22;331;48.414;9.938;2023-05-10T10:02:39;13.80;99.90
698;DHT22;331;48.414;9.938;2023-05-10T10:05:13;13.80;99.90
698;DHT22;331;48.414;9.938;2023-05-10T10:07:40;13.80;99.90
698;DHT22;331;48.414;9.938;2023-05-10T10:10:08;13.80;99.90
698;DHT22;331;48.414;9.938;2023-05-10T10:12:38;13.80;99.90
698;DHT22;331;48.414;9.938;2023-05-10T10:15:06;13.80;99.90
698;DHT22;331;48.414;9.938;2023-05-10T10:17:39;13.80;99.90
698;DHT22;331;48.414;9.938;2023-05-10T10:20:07;13.80;99.90
698;DHT22;331;48.414;9.938;2023-05-10T10:22:42;13.80;99.90
698;DHT22;331;48.414;9.938;2023-05-10T10:25:15;13.80;99.90
698;DHT22;331;48.414;9.938;2023-05-10T10:27:45;13.80;99.90
698;DHT22;331;48.414;9.938;2023-05-10T10:30:23;13.80;99.90
698;DHT22;331;48.414;9.938;2023-05-10T10:32:59;13.80;99.90
698;DHT22;331;48.414;9.938;2023-05-10T10:35:28;13.80;99.90
698;DHT22;331;48.414;9.938;2023-05-10T10:37:57;13.80;99.90
698;DHT22;331;48.414;9.938;2023-05-10T10:40:26;13.80;99.90
698;DHT22;331;48.414;9.938;2023-05-10T10:42:54;13.80;99.90
698;DHT22;331;48.414;9.938;2023-05-10T10:45:23;13.90;99.90
698;DHT22;331;48.414;9.938;2023-05-10T10:47:53;13.80;99.90
698;DHT22;331;48.414;9.938;2023-05-10T10:50:43;13.90;99.90
698;DHT22;331;48.414;9.938;2023-05-10T10:53:12;13.90;99.90
698;DHT22;331;48.414;9.938;2023-05-10T10:55:48;13.90;99.90
698;DHT22;331;48.414;9.938;2023-05-10T10:58:28;13.90;99.90
698;DHT22;331;48.414;9.938;2023-05-10T11:01:08;14.00;99.90
698;DHT22;331;48.414;9.938;2023-05-10T11:03:35;13.90;99.90
698;DHT22;331;48.414;9.938;2023-05-10T11:06:02;13.90;99.90
698;DHT22;331;48.414;9.938;2023-05-10T11:08:33;14.00;99.90
698;DHT22;331;48.414;9.938;2023-05-10T11:11:05;13.90;99.90
698;DHT22;331;48.414;9.938;2023-05-10T11:13:42;13.90;99.90
698;DHT22;331;48.414;9.938;2023-05-10T11:16:18;14.00;99.90
698;DHT22;331;48.414;9.938;2023-05-10T11:18:56;13.90;99.90
698;DHT22;331;48.414;9.938;2023-05-10T11:21:27;14.00;99.90
698;DHT22;331;48.414;9.938;2023-05-10T11:23:56;14.00;99.90
698;DHT22;331;48.414;9.938;2023-05-10T11:26:23;14.00;99.90
698;DHT22;331;48.414;9.938;2023-05-10T11:28:57;14.00;99.90
698;DHT22;331;48.414;9.938;2023-05-10T11:31:35;14.00;99.90
698;DHT22;331;48.414;9.938;2023-05-10T11:34:07;14.00;99.90
698;DHT22;331;48.414;9.938;2023-05-10T11:36:35;14.00;99.90
698;DHT22;331;48.414;9.938;2023-05-10T11:39:04;14.00;99.90
698;DHT22;331;48.414;9.938;2023-05-10T11:41:34;14.00;99.90
698;DHT22;331;48.414;9.938;2023-05-10T11:44:07;14.10;99.90
698;DHT22;331;48.414;9.938;2023-05-10T11:46:35;14.00;99.90
698;DHT22;331;48.414;9.938;2023-05-10T11:49:03;14.00;99.90
698;DHT22;331;48.414;9.938;2023-05-10T11:51:33;14.10;99.90
698;DHT22;331;48.414;9.938;2023-05-10T11:54:13;14.00;99.90
698;DHT22;331;48.414;9.938;2023-05-10T11:56:40;14.10;99.90
698;DHT22;331;48.414;9.938;2023-05-10T11:59:13;14.10;99.90
698;DHT22;331;48.414;9.938;2023-05-10T12:01:44;14.10;99.90
698;DHT22;331;48.414;9.938;2023-05-10T12:04:11;14.10;99.90
698;DHT22;331;48.414;9.938;2023-05-10T12:06:39;14.10;99.90
698;DHT22;331;48.414;9.938;2023-05-10T12:09:08;14.10;99.90
698;DHT22;331;48.414;9.938;2023-05-10T12:11:45;14.00;99.90
698;DHT22;331;48.414;9.938;2023-05-10T12:14:12;14.00;99.90
698;DHT22;331;48.414;9.938;2023-05-10T12:16:38;14.00;99.90
698;DHT22;331;48.414;9.938;2023-05-10T12:19:05;14.00;99.90
698;DHT22;331;48.414;9.938;2023-05-10T12:21:52;14.00;99.90
698;DHT22;331;48.414;9.938;2023-05-10T12:24:21;14.00;99.90
698;DHT22;331;48.414;9.938;2023-05-10T12:26:53;14.00;99.90
698;DHT22;331;48.414;9.938;2023-05-10T12:29:20;14.00;99.90
698;DHT22;331;48.414;9.938;2023-05-10T12:31:56;14.00;99.90
698;DHT22;331;48.414;9.938;2023-05-10T12:34:29;14.00;99.90
698;DHT22;331;48.414;9.938;2023-05-10T12:36:57;14.00;99.90
698;DHT22;331;48.414;9.938;2023-05-10T12:39:25;14.00;99.90
698;DHT22;331;48.414;9.938;2023-05-10T12:41:52;14.00;99.90
698;DHT22;331;48.414;9.938;2023-05-10T12:44:19;14.00;99.90
698;DHT22;331;48.414;9.938;2023-05-10T12:46:46;14.00;99.90
698;DHT22;331;48.414;9.938;2023-05-10T12:49:18;14.00;99.90
698;DHT22;331;48.414;9.938;2023-05-10T12:51:45;14.00;99.90
698;DHT22;331;48.414;9.938;2023-05-10T12:54:12;13.90;99.90
698;DHT22;331;48.414;9.938;2023-05-10T12:56:43;14.00;99.90
698;DHT22;331;48.414;9.938;2023-05-10T12:59:10;14.00;99.90
698;DHT22;331;48.414;9.938;2023-05-10T13:01:37;14.00;99.90
698;DHT22;331;48.414;9.938;2023-05-10T13:04:04;14.00;99.90
698;DHT22;331;48.414;9.938;2023-05-10T13:06:30;14.00;99.90
698;DHT22;331;48.414;9.938;2023-05-10T13:08:59;14.00;99.90
698;DHT22;331;48.414;9.938;2023-05-10T13:11:26;14.00;99.90
698;DHT22;331;48.414;9.938;2023-05-10T13:13:58;14.00;99.90
698;DHT22;331;48.414;9.938;2023-05-10T13:16:28;13.90;99.90
698;DHT22;331;48.414;9.938;2023-05-10T13:19:33;13.90;99.90
698;DHT22;331;48.414;9.938;2023-05-10T13:21:43;13.90;99.90
698;DHT22;331;48.414;9.938;2023-05-10T13:24:11;13.80;99.90
698;DHT22;331;48.414;9.938;2023-05-10T13:26:39;13.80;99.90
698;DHT22;331;48.414;9.938;2023-05-10T13:29:09;13.80;99.90
698;DHT22;331;48.414;9.938;2023-05-10T13:31:36;13.90;99.90
698;DHT22;331;48.414;9.938;2023-05-10T13:34:06;13.80;99.90
698;DHT22;331;48.414;9.938;2023-05-10T13:36:33;13.80;99.90
698;DHT22;331;48.414;9.938;2023-05-10T13:39:01;13.80;99.90
698;DHT22;331;48.414;9.938;2023-05-10T13:41:31;13.80;99.90
698;DHT22;331;48.414;9.938;2023-05-10T13:43:58;13.70;99.90
698;DHT22;331;48.414;9.938;2023-05-10T13:46:26;13.70;99.90
698;DHT22;331;48.414;9.938;2023-05-10T13:48:53;13.80;99.90
698;DHT22;331;48.414;9.938;2023-05-10T13:51:28;13.70;99.90
698;DHT22;331;48.414;9.938;2023-05-10T13:53:54;13.70;99.90
698;DHT22;331;48.414;9.938;2023-05-10T13:56:21;13.70;99.90
698;DHT22;331;48.414;9.938;2023-05-10T13:58:51;13.70;99.90
698;DHT22;331;48.414;9.938;2023-05-10T14:01:18;13.70;99.90
698;DHT22;331;48.414;9.938;2023-05-10T14:03:55;13.70;99.90
698;DHT22;331;48.414;9.938;2023-05-10T14:06:22;13.70;99.90
698;DHT22;331;48.414;9.938;2023-05-10T14:08:49;13.70;99.90
698;DHT22;331;48.414;9.938;2023-05-10T14:11:17;13.70;99.90
698;DHT22;331;48.414;9.938;2023-05-10T14:13:44;13.70;99.90
698;DHT22;331;48.414;9.938;2023-05-10T14:16:11;13.70;99.90
698;DHT22;331;48.414;9.938;2023-05-10T14:18:43;13.70;99.90
698;DHT22;331;48.414;9.938;2023-05-10T14:21:12;13.70;99.90
698;DHT22;331;48.414;9.938;2023-05-10T14:23:39;13.70;99.90
698;DHT22;331;48.414;9.938;2023-05-10T14:26:21;13.60;99.90
698;DHT22;331;48.414;9.938;2023-05-10T14:28:55;13.70;99.90
698;DHT22;331;48.414;9.938;2023-05-10T14:31:29;13.70;99.90
698;DHT22;331;48.414;9.938;2023-05-10T14:34:08;13.70;99.90
698;DHT22;331;48.414;9.938;2023-05-10T14:36:40;13.70;99.90
698;DHT22;331;48.414;9.938;2023-05-10T14:39:08;13.60;99.90
698;DHT22;331;48.414;9.938;2023-05-10T14:41:38;13.60;99.90
698;DHT22;331;48.414;9.938;2023-05-10T14:44:11;13.70;99.90
698;DHT22;331;48.414;9.938;2023-05-10T14:46:46;13.70;99.90
698;DHT22;331;48.414;9.938;2023-05-10T14:49:14;13.60;99.90
698;DHT22;331;48.414;9.938;2023-05-10T14:51:45;13.60;99.90
698;DHT22;331;48.414;9.938;2023-05-10T14:54:17;13.70;99.90
698;DHT22;331;48.414;9.938;2023-05-10T14:56:50;13.70;99.90
698;DHT22;331;48.414;9.938;2023-05-10T14:59:31;13.70;99.90
698;DHT22;331;48.414;9.938;2023-05-10T15:01:59;13.70;99.90
698;DHT22;331;48.414;9.938;2023-05-10T15:04:26;13.70;99.90
698;DHT22;331;48.414;9.938;2023-05-10T15:07:03;13.70;99.90
698;DHT22;331;48.414;9.938;2023-05-10T15:09:39;13.70;99.90
698;DHT22;331;48.414;9.938;2023-05-10T15:12:11;13.70;99.90
698;DHT22;331;48.414;9.938;2023-05-10T15:14:38;13.70;99.90
698;DHT22;331;48.414;9.938;2023-05-10T15:17:06;13.70;99.90
698;DHT22;331;48.414;9.938;2023-05-10T15:19:37;13.70;99.90
698;DHT22;331;48.414;9.938;2023-05-10T15:22:23;13.70;99.90
698;DHT22;331;48.414;9.938;2023-05-10T15:24:55;13.70;99.90
698;DHT22;331;48.414;9.938;2023-05-10T15:27:27;13.70;99.90
698;DHT22;331;48.414;9.938;2023-05-10T15:30:02;13.70;99.90
698;DHT22;331;48.414;9.938;2023-05-10T15:32:30;13.70;99.90
698;DHT22;331;48.414;9.938;2023-05-10T15:34:58;13.70;99.90
698;DHT22;331;48.414;9.938;2023-05-10T15:37:30;13.70;99.90
698;DHT22;331;48.414;9.938;2023-05-10T15:39:58;13.70;99.90
698;DHT22;331;48.414;9.938;2023-05-10T15:42:29;13.70;99.90
698;DHT22;331;48.414;9.938;2023-05-10T15:44:58;13.70;99.90
698;DHT22;331;48.414;9.938;2023-05-10T15:47:29;13.70;99.90
698;DHT22;331;48.414;9.938;2023-05-10T15:49:57;13.70;99.90
698;DHT22;331;48.414;9.938;2023-05-10T15:52:26;13.70;99.90
698;DHT22;331;48.414;9.938;2023-05-10T15:54:56;13.70;99.90
698;DHT22;331;48.414;9.938;2023-05-10T15:57:25;13.80;99.90
698;DHT22;331;48.414;9.938;2023-05-10T15:59:58;13.80;99.90
698;DHT22;331;48.414;9.938;2023-05-10T16:02:38;13.80;99.90
698;DHT22;331;48.414;9.938;2023-05-10T16:05:07;13.80;99.90
698;DHT22;331;48.414;9.938;2023-05-10T16:07:42;13.80;99.90
698;DHT22;331;48.414;9.938;2023-05-10T16:10:21;13.80;99.90
698;DHT22;331;48.414;9.938;2023-05-10T16:12:50;13.80;99.90
698;DHT22;331;48.414;9.938;2023-05-10T16:15:19;13.80;99.90
698;DHT22;331;48.414;9.938;2023-05-10T16:17:57;13.80;99.90
698;DHT22;331;48.414;9.938;2023-05-10T16:20:25;13.80;99.90
698;DHT22;331;48.414;9.938;2023-05-10T16:22:55;13.80;99.90
698;DHT22;331;48.414;9.938;2023-05-10T16:25:25;13.80;99.90
698;DHT22;331;48.414;9.938;2023-05-10T16:27:55;13.80;99.90
698;DHT22;331;48.414;9.938;2023-05-10T16:30:25;13.80;99.90
698;DHT22;331;48.414;9.938;2023-05-10T16:32:56;13.80;99.90
698;DHT22;331;48.414;9.938;2023-05-10T16:35:24;13.80;99.90
698;DHT22;331;48.414;9.938;2023-05-10T16:37:58;13.80;99.90
698;DHT22;331;48.414;9.938;2023-05-10T16:40:32;13.80;99.90
698;DHT22;331;48.414;9.938;2023-05-10T16:43:02;13.80;99.90
698;DHT22;331;48.414;9.938;2023-05-10T16:45:31;13.80;99.90
698;DHT22;331;48.414;9.938;2023-05-10T16:48:00;13.80;99.90
698;DHT22;331;48.414;9.938;2023-05-10T16:50:29;13.80;99.90
698;DHT22;331;48.414;9.938;2023-05-10T16:52:58;13.80;99.90
698;DHT22;331;48.414;9.938;2023-05-10T16:55:26;13.80;99.90
698;DHT22;331;48.414;9.938;2023-05-10T16:57:57;13.80;99.90
698;DHT22;331;48.414;9.938;2023-05-10T17:00:29;13.70;99.90
698;DHT22;331;48.414;9.938;2023-05-10T17:02:57;13.70;99.90
698;DHT22;331;48.414;9.938;2023-05-10T17:05:33;13.70;99.90
698;DHT22;331;48.414;9.938;2023-05-10T17:08:09;13.70;99.90
698;DHT22;331;48.414;9.938;2023-05-10T17:10:43;13.70;99.90
698;DHT22;331;48.414;9.938;2023-05-10T17:13:13;13.70;99.90
698;DHT22;331;48.414;9.938;2023-05-10T17:15:44;13.70;99.90
698;DHT22;331;48.414;9.938;2023-05-10T17:18:24;13.70;99.90
698;DHT22;331;48.414;9.938;2023-05-10T17:20:52;13.70;99.90
698;DHT22;331;48.414;9.938;2023-05-10T17:23:19;13.70;99.90
698;DHT22;331;48.414;9.938;2023-05-10T17:25:46;13.70;99.90